Time;durP1;ratioP1;P1;durP2;ratioP2;P2;SDS_P1;SDS_P2;PMS_P1;PMS_P2;Temp;Humidity;BMP_temperature;BMP_pressure;BME280_temperature;BME280_humidity;BME280_pressure;Samples;Min_cycle;Max_cycle;Signal;HPM_P1;HPM_P2
2022/04/11 00:02:14;;;;;;;6.15;1.83;;;4.00;99.90;;;;;;5074856;28;20040;-72
2022/04/11 00:04:40;;;;;;;5.80;2.00;;;3.90;99.90;;;;;;5074883;28;20044;-72
2022/04/11 00:07:05;;;;;;;3.13;1.55;;;3.90;99.90;;;;;;5074808;28;20040;-72
2022/04/11 00:09:31;;;;;;;5.10;1.73;;;3.80;99.90;;;;;;5074751;28;20498;-72
2022/04/11 00:11:56;;;;;;;4.70;1.52;;;3.80;99.90;;;;;;5075845;28;20046;-72
2022/04/11 00:14:24;;;;;;;3.47;1.60;;;3.70;99.90;;;;;;5074728;28;20565;-72
2022/04/11 00:16:49;;;;;;;4.95;2.00;;;3.70;99.90;;;;;;5058093;28;20070;-72
2022/04/11 00:19:15;;;;;;;4.53;1.50;;;3.70;99.90;;;;;;5074652;28;20044;-72
2022/04/11 00:21:41;;;;;;;4.93;1.80;;;3.70;99.90;;;;;;5074693;28;20090;-72
2022/04/11 00:24:07;;;;;;;3.97;1.63;;;3.70;99.90;;;;;;5074664;28;20044;-72
2022/04/11 00:26:32;;;;;;;3.85;1.67;;;3.70;99.90;;;;;;5074681;28;20132;-72
2022/04/11 00:28:58;;;;;;;4.03;1.55;;;3.60;99.90;;;;;;5074602;28;20097;-72
2022/04/11 00:31:24;;;;;;;4.25;1.73;;;3.60;99.90;;;;;;5057828;28;20040;-72
2022/04/11 00:33:49;;;;;;;5.82;1.92;;;3.60;99.90;;;;;;5074670;28;20153;-72
2022/04/11 00:36:15;;;;;;;5.25;2.15;;;3.70;99.90;;;;;;5074557;28;20424;-72
2022/04/11 00:38:41;;;;;;;3.75;1.80;;;3.60;99.90;;;;;;5074417;28;20039;-72
2022/04/11 00:41:06;;;;;;;4.97;1.80;;;3.60;99.90;;;;;;5075301;28;20043;-72
2022/04/11 00:43:37;;;;;;;4.82;1.73;;;3.60;99.90;;;;;;5078110;28;20601;-72
2022/04/11 00:46:04;;;;;;;7.20;2.22;;;3.60;99.90;;;;;;5078074;28;20052;-72
2022/04/11 00:48:29;;;;;;;5.43;2.03;;;3.60;99.90;;;;;;5078218;28;20044;-72
2022/04/11 00:51:01;;;;;;;6.28;1.90;;;3.60;99.90;;;;;;5077936;28;20138;-72
2022/04/11 00:53:30;;;;;;;4.55;2.03;;;3.50;99.90;;;;;;5078089;28;20044;-72
2022/04/11 00:55:57;;;;;;;3.95;1.98;;;3.50;99.90;;;;;;5077869;28;20094;-72
2022/04/11 00:58:23;;;;;;;3.92;1.90;;;3.50;99.90;;;;;;5077771;28;20046;-72
2022/04/11 01:00:49;;;;;;;8.73;2.45;;;3.40;99.90;;;;;;5077775;28;20089;-72
2022/04/11 01:03:15;;;;;;;4.38;2.08;;;3.40;99.90;;;;;;5077770;28;20032;-72
2022/04/11 01:05:41;;;;;;;3.72;2.00;;;3.40;99.90;;;;;;5077748;28;20036;-72
2022/04/11 01:08:08;;;;;;;4.38;2.00;;;3.40;99.90;;;;;;5077539;28;20048;-72
2022/04/11 01:10:33;;;;;;;5.18;2.20;;;3.40;99.90;;;;;;5077879;28;20114;-72
2022/04/11 01:13:00;;;;;;;5.45;2.45;;;3.30;99.90;;;;;;5077697;28;20492;-72
2022/04/11 01:15:26;;;;;;;6.60;2.20;;;3.30;99.90;;;;;;5077506;28;20492;-72
2022/04/11 01:17:51;;;;;;;3.63;1.95;;;3.30;99.90;;;;;;5077647;28;20051;-72
2022/04/11 01:20:17;;;;;;;4.90;2.22;;;3.30;99.90;;;;;;5077722;28;20024;-72
2022/04/11 01:22:43;;;;;;;5.43;2.33;;;3.20;99.90;;;;;;5077318;28;20575;-72
2022/04/11 01:25:13;;;;;;;4.65;2.30;;;3.20;99.90;;;;;;5060610;28;20044;-72
2022/04/11 01:27:39;;;;;;;3.65;2.05;;;3.20;99.90;;;;;;5077307;28;20040;-72
2022/04/11 01:30:07;;;;;;;3.95;2.20;;;3.20;99.90;;;;;;5077807;28;20063;-72
2022/04/11 01:32:33;;;;;;;6.63;2.28;;;3.20;99.90;;;;;;5077321;28;20044;-72
2022/04/11 01:34:59;;;;;;;4.93;2.38;;;3.20;99.90;;;;;;5077089;28;20043;-72
2022/04/11 01:37:24;;;;;;;6.50;2.20;;;3.20;99.90;;;;;;5077067;28;20125;-72
2022/04/11 01:39:50;;;;;;;4.15;2.40;;;3.20;99.90;;;;;;5076750;28;20123;-72
2022/04/11 01:42:16;;;;;;;4.35;2.47;;;3.20;99.90;;;;;;5077244;28;20039;-72
2022/04/11 01:44:41;;;;;;;6.25;2.65;;;3.20;99.90;;;;;;5076911;28;20044;-72
2022/04/11 01:47:07;;;;;;;5.30;2.70;;;3.20;99.90;;;;;;5076872;28;20040;-72
2022/04/11 01:49:32;;;;;;;6.30;2.40;;;3.10;99.90;;;;;;5077022;28;20036;-72
2022/04/11 01:51:58;;;;;;;5.90;2.70;;;3.10;99.90;;;;;;5060390;28;20488;-72
2022/04/11 01:54:23;;;;;;;6.50;2.40;;;3.10;99.90;;;;;;5075694;28;20519;-72
2022/04/11 01:56:49;;;;;;;5.65;2.63;;;3.10;99.90;;;;;;5076938;28;20032;-72
2022/04/11 01:59:18;;;;;;;4.38;2.50;;;3.10;99.90;;;;;;5076589;28;20504;-72
2022/04/11 02:01:43;;;;;;;3.63;2.33;;;3.10;99.90;;;;;;5076620;28;20075;-74
2022/04/11 02:04:09;;;;;;;7.00;3.00;;;3.00;99.90;;;;;;5076498;28;20078;-74
2022/04/11 02:06:35;;;;;;;6.78;2.67;;;3.00;99.90;;;;;;5060120;28;20036;-74
2022/04/11 02:09:01;;;;;;;6.95;2.75;;;3.00;99.90;;;;;;5059678;28;20040;-74
2022/04/11 02:11:27;;;;;;;5.03;2.45;;;3.00;99.90;;;;;;5076689;28;20040;-74
2022/04/11 02:13:52;;;;;;;4.72;2.30;;;3.00;99.90;;;;;;5076299;28;20493;-74
2022/04/11 02:16:18;;;;;;;5.60;2.70;;;2.90;99.90;;;;;;5076339;28;20047;-74
2022/04/11 02:18:43;;;;;;;6.00;2.92;;;3.00;99.90;;;;;;5059592;28;20401;-74
2022/04/11 02:21:09;;;;;;;4.07;2.50;;;2.90;99.90;;;;;;5076251;28;20032;-74
2022/04/11 02:23:35;;;;;;;5.95;2.72;;;2.90;99.90;;;;;;5076157;28;20036;-74
2022/04/11 02:26:00;;;;;;;4.95;2.20;;;3.00;99.90;;;;;;5076165;28;20051;-74
2022/04/11 02:28:26;;;;;;;5.72;2.33;;;3.00;99.90;;;;;;5075924;28;20039;-74
2022/04/11 02:30:52;;;;;;;9.90;2.78;;;3.00;99.90;;;;;;5076067;28;20130;-74
2022/04/11 02:33:18;;;;;;;4.97;2.00;;;2.90;99.90;;;;;;5075901;28;20048;-74
2022/04/11 02:35:43;;;;;;;4.78;2.15;;;3.00;99.90;;;;;;5075916;28;20044;-74
2022/04/11 02:38:09;;;;;;;4.97;2.13;;;2.90;99.90;;;;;;5059249;28;20036;-74
2022/04/11 02:40:35;;;;;;;5.97;2.15;;;3.00;99.90;;;;;;5075909;28;20097;-74
2022/04/11 02:43:00;;;;;;;3.80;1.98;;;2.90;99.90;;;;;;5076048;28;20050;-74
2022/04/11 02:45:26;;;;;;;5.05;2.05;;;3.00;99.90;;;;;;5075689;28;20036;-74
2022/04/11 02:47:52;;;;;;;3.67;2.08;;;3.00;99.90;;;;;;5075689;28;20040;-74
2022/04/11 02:50:17;;;;;;;4.47;2.03;;;3.00;99.90;;;;;;5075748;28;20042;-74
2022/04/11 02:52:43;;;;;;;4.28;1.90;;;2.90;99.90;;;;;;5059261;28;20039;-74
2022/04/11 02:55:09;;;;;;;5.22;2.05;;;3.00;99.90;;;;;;5075881;28;20032;-74
2022/04/11 02:57:38;;;;;;;4.53;1.90;;;2.90;99.90;;;;;;5075782;28;20404;-74
2022/04/11 03:00:10;;;;;;;4.03;2.20;;;2.90;99.90;;;;;;5075530;28;20496;-74
2022/04/11 03:02:36;;;;;;;7.22;2.08;;;2.90;99.90;;;;;;5075500;28;20040;-74
2022/04/11 03:05:02;;;;;;;4.50;2.53;;;2.90;99.90;;;;;;5075355;28;20105;-74
2022/04/11 03:07:27;;;;;;;3.78;1.80;;;2.90;99.90;;;;;;5075530;28;20036;-74
2022/04/11 03:09:54;;;;;;;4.07;2.00;;;2.90;99.90;;;;;;5075551;28;20047;-74
2022/04/11 03:12:20;;;;;;;4.75;2.40;;;2.90;99.90;;;;;;5075674;28;20407;-74
2022/04/11 03:14:49;;;;;;;5.95;2.40;;;2.90;99.90;;;;;;5075802;28;20051;-74
2022/04/11 03:17:15;;;;;;;5.22;1.85;;;2.90;99.90;;;;;;5075354;28;20040;-74
2022/04/11 03:19:41;;;;;;;5.18;2.17;;;2.80;99.90;;;;;;5075488;28;20055;-74
2022/04/11 03:22:06;;;;;;;4.05;1.83;;;2.80;99.90;;;;;;5075266;28;20055;-74
2022/04/11 03:24:32;;;;;;;5.20;2.10;;;2.80;99.90;;;;;;5075230;28;20036;-74
2022/04/11 03:26:58;;;;;;;6.20;2.28;;;2.80;99.90;;;;;;5075284;28;20093;-74
2022/04/11 03:29:23;;;;;;;4.28;2.28;;;2.80;99.90;;;;;;5075098;28;20032;-74
2022/04/11 03:31:49;;;;;;;6.55;2.00;;;2.70;99.90;;;;;;5075195;28;20079;-74
2022/04/11 03:34:15;;;;;;;4.97;1.90;;;2.80;99.90;;;;;;5058410;28;20044;-74
2022/04/11 03:36:40;;;;;;;6.65;2.58;;;2.70;99.90;;;;;;5075158;28;20032;-74
2022/04/11 03:39:06;;;;;;;3.85;2.20;;;2.70;99.90;;;;;;5074889;28;20082;-74
2022/04/11 03:41:31;;;;;;;4.40;2.03;;;2.70;99.90;;;;;;5075068;28;20040;-74
2022/04/11 03:43:57;;;;;;;4.03;2.10;;;2.70;99.90;;;;;;5075031;28;20093;-74
2022/04/11 03:46:22;;;;;;;5.28;1.85;;;2.70;99.90;;;;;;5075053;28;20121;-74
2022/04/11 03:48:48;;;;;;;4.22;1.98;;;2.70;99.90;;;;;;5074953;28;20051;-74
2022/04/11 03:51:14;;;;;;;4.80;1.85;;;2.80;99.90;;;;;;5075018;28;20040;-75
2022/04/11 03:53:41;;;;;;;5.65;2.00;;;2.80;99.90;;;;;;5058229;28;20072;-74
2022/04/11 03:56:06;;;;;;;3.28;1.90;;;2.80;99.90;;;;;;5075211;28;20028;-74
2022/04/11 03:58:32;;;;;;;5.68;2.10;;;2.80;99.90;;;;;;5058249;28;20090;-74
2022/04/11 04:00:58;;;;;;;3.78;1.75;;;2.80;99.90;;;;;;5074945;28;20118;-74
2022/04/11 04:03:23;;;;;;;3.67;2.00;;;2.90;99.90;;;;;;5074928;28;20040;-74
2022/04/11 04:05:49;;;;;;;3.85;1.60;;;2.90;99.90;;;;;;5074906;28;20036;-74
2022/04/11 04:08:17;;;;;;;3.70;1.73;;;2.90;99.90;;;;;;5074773;28;20127;-74
2022/04/11 04:10:44;;;;;;;3.72;2.00;;;2.90;99.90;;;;;;5058276;28;20047;-74
2022/04/11 04:13:10;;;;;;;4.22;1.83;;;2.90;99.90;;;;;;5074697;28;20040;-74
2022/04/11 04:15:36;;;;;;;3.45;1.80;;;2.90;99.90;;;;;;5074676;28;20040;-74
2022/04/11 04:18:01;;;;;;;4.38;1.60;;;3.00;99.90;;;;;;5078241;28;20036;-74
2022/04/11 04:20:27;;;;;;;4.68;1.60;;;3.00;99.90;;;;;;5078583;28;20166;-74
2022/04/11 04:22:57;;;;;;;2.40;1.33;;;3.00;99.90;;;;;;5078797;28;20412;-74
2022/04/11 04:25:23;;;;;;;4.65;1.73;;;3.10;99.90;;;;;;5078460;28;20028;-74
2022/04/11 04:27:49;;;;;;;4.85;1.90;;;3.10;99.90;;;;;;5078609;28;20097;-74
2022/04/11 04:30:15;;;;;;;4.43;1.90;;;3.10;99.90;;;;;;5078345;28;20385;-74
2022/04/11 04:32:41;;;;;;;4.85;1.70;;;3.10;99.90;;;;;;5078227;28;20075;-74
2022/04/11 04:35:07;;;;;;;3.70;1.80;;;3.20;99.90;;;;;;5078250;28;20089;-74
2022/04/11 04:37:33;;;;;;;3.78;1.63;;;3.20;99.90;;;;;;5078164;28;20039;-73
2022/04/11 04:39:59;;;;;;;3.65;1.55;;;3.20;99.90;;;;;;5078049;28;20028;-74
2022/04/11 04:42:26;;;;;;;2.88;1.63;;;3.20;99.90;;;;;;5079057;28;20082;-75
2022/04/11 04:44:52;;;;;;;5.30;1.75;;;3.30;99.90;;;;;;5078109;28;20040;-74
2022/04/11 04:47:18;;;;;;;3.28;1.55;;;3.20;99.90;;;;;;5078078;28;20047;-74
2022/04/11 04:49:44;;;;;;;4.30;2.13;;;3.30;99.90;;;;;;5077944;28;20044;-74
2022/04/11 04:52:10;;;;;;;4.43;1.92;;;3.30;99.90;;;;;;5077994;28;20040;-74
2022/04/11 04:54:36;;;;;;;4.22;2.03;;;3.30;99.90;;;;;;5077976;28;20093;-74
2022/04/11 04:57:02;;;;;;;4.65;1.90;;;3.30;99.90;;;;;;5077904;28;20455;-74
2022/04/11 04:59:28;;;;;;;3.42;1.63;;;3.30;99.90;;;;;;5077800;28;20080;-74
2022/04/11 05:01:54;;;;;;;4.20;1.80;;;3.40;99.90;;;;;;5077778;28;20035;-74
2022/04/11 05:04:20;;;;;;;4.60;1.88;;;3.30;99.90;;;;;;5078066;28;20426;-74
2022/04/11 05:06:45;;;;;;;3.08;1.85;;;3.40;99.90;;;;;;5077980;28;20036;-74
2022/04/11 05:09:11;;;;;;;4.30;2.20;;;3.40;99.90;;;;;;5077597;28;20035;-74
2022/04/11 05:11:37;;;;;;;6.68;2.28;;;3.40;99.90;;;;;;5077592;28;20063;-74
2022/04/11 05:14:02;;;;;;;3.28;1.80;;;3.50;99.90;;;;;;5077528;28;20044;-74
2022/04/11 05:16:28;;;;;;;5.25;2.25;;;3.50;99.90;;;;;;5077516;28;20036;-74
2022/04/11 05:18:53;;;;;;;4.22;2.00;;;3.50;99.90;;;;;;5077425;28;20032;-74
2022/04/11 05:21:19;;;;;;;5.72;2.20;;;3.50;99.90;;;;;;5077475;28;20077;-74
2022/04/11 05:23:45;;;;;;;2.83;2.00;;;3.60;99.90;;;;;;5077383;28;20047;-74
2022/04/11 05:26:10;;;;;;;3.53;1.92;;;3.60;99.90;;;;;;5077366;28;20036;-74
2022/04/11 05:28:36;;;;;;;5.13;2.47;;;3.60;99.90;;;;;;5077128;28;20032;-74
2022/04/11 05:31:01;;;;;;;7.15;2.80;;;3.70;99.90;;;;;;5077274;28;20031;-74
2022/04/11 05:33:27;;;;;;;8.07;2.47;;;3.70;99.90;;;;;;5077389;28;20047;-75
2022/04/11 05:35:55;;;;;;;4.10;2.15;;;3.70;99.90;;;;;;5077155;28;20043;-74
2022/04/11 05:38:20;;;;;;;5.85;2.15;;;3.70;99.90;;;;;;5076698;28;20036;-74
2022/04/11 05:40:46;;;;;;;4.85;1.92;;;3.70;99.90;;;;;;5076324;28;20032;-74
2022/04/11 05:43:15;;;;;;;6.82;2.13;;;3.70;99.90;;;;;;5076023;28;20051;-74
2022/04/11 05:45:43;;;;;;;5.32;1.90;;;3.80;99.90;;;;;;5076147;28;20043;-74
2022/04/11 05:48:10;;;;;;;5.80;1.80;;;3.80;99.90;;;;;;5075827;28;20500;-74
2022/04/11 05:50:36;;;;;;;5.70;2.20;;;3.80;99.90;;;;;;5075898;28;20072;-74
2022/04/11 05:53:02;;;;;;;6.45;2.10;;;3.90;99.90;;;;;;5075755;28;20040;-74
2022/04/11 05:55:28;;;;;;;6.53;2.90;;;3.90;99.90;;;;;;5075730;28;20400;-74
2022/04/11 05:57:54;;;;;;;4.70;2.40;;;4.00;99.90;;;;;;5075706;28;20028;-74
2022/04/11 06:00:20;;;;;;;3.30;2.05;;;3.90;99.90;;;;;;5076008;28;20066;-74
2022/04/11 06:02:47;;;;;;;5.43;1.98;;;3.90;99.90;;;;;;5075944;28;20036;-74
2022/04/11 06:05:12;;;;;;;5.85;2.20;;;4.00;99.90;;;;;;5075936;28;20036;-74
2022/04/11 06:07:39;;;;;;;6.30;1.80;;;4.00;99.90;;;;;;5075582;28;20047;-74
2022/04/11 06:10:05;;;;;;;5.00;1.75;;;4.00;99.90;;;;;;5075855;28;20147;-76
2022/04/11 06:12:31;;;;;;;7.18;1.85;;;4.10;99.90;;;;;;5075802;28;20073;-75
2022/04/11 06:14:58;;;;;;;4.53;2.20;;;4.10;99.90;;;;;;5075445;28;20071;-74
2022/04/11 06:17:24;;;;;;;4.53;1.80;;;4.20;99.90;;;;;;5075435;28;20071;-75
2022/04/11 06:19:51;;;;;;;4.40;1.77;;;4.20;99.90;;;;;;5058839;28;20475;-74
2022/04/11 06:22:17;;;;;;;5.80;2.25;;;4.30;99.90;;;;;;5075398;28;20047;-74
2022/04/11 06:24:43;;;;;;;5.75;2.47;;;4.30;99.90;;;;;;5075376;28;20047;-74
2022/04/11 06:27:09;;;;;;;3.83;1.90;;;4.40;99.90;;;;;;5075358;28;20048;-74
2022/04/11 06:29:35;;;;;;;5.05;1.88;;;4.50;99.90;;;;;;5075325;28;20051;-74
2022/04/11 06:32:04;;;;;;;5.47;1.77;;;4.50;99.90;;;;;;5075514;28;20081;-75
2022/04/11 06:34:30;;;;;;;5.15;2.00;;;4.60;99.90;;;;;;5075213;28;20063;-75
2022/04/11 06:36:56;;;;;;;7.25;2.08;;;4.70;99.90;;;;;;5058381;28;20507;-74
2022/04/11 06:39:22;;;;;;;5.07;2.13;;;4.70;99.90;;;;;;5039423;28;1016776;-74
2022/04/11 06:41:48;;;;;;;2.88;1.90;;;4.80;99.90;;;;;;5076088;28;20040;-74
2022/04/11 06:44:13;;;;;;;7.18;2.30;;;4.80;99.90;;;;;;5075727;28;20418;-74
2022/04/11 06:46:39;;;;;;;9.10;2.33;;;4.90;99.90;;;;;;5076048;28;20036;-74
2022/04/11 06:49:05;;;;;;;4.72;2.53;;;4.90;99.90;;;;;;5075686;28;20036;-74
2022/04/11 06:51:30;;;;;;;3.83;2.22;;;5.00;99.90;;;;;;5075974;28;20088;-74
2022/04/11 06:53:56;;;;;;;6.75;2.10;;;5.10;99.90;;;;;;5059108;28;20485;-74
2022/04/11 06:56:22;;;;;;;5.55;2.95;;;5.10;99.90;;;;;;5075673;28;20582;-74
2022/04/11 06:58:47;;;;;;;4.15;2.20;;;5.20;99.90;;;;;;5075520;28;20036;-74
2022/04/11 07:01:13;;;;;;;6.18;2.17;;;5.30;99.90;;;;;;5075625;28;20051;-74
2022/04/11 07:03:38;;;;;;;5.25;2.42;;;5.30;99.90;;;;;;5076126;28;20052;-74
2022/04/11 07:06:04;;;;;;;6.88;2.40;;;5.40;99.90;;;;;;5059075;28;20112;-74
2022/04/11 07:08:29;;;;;;;6.43;2.45;;;5.50;99.90;;;;;;5075445;28;20044;-74
2022/04/11 07:10:57;;;;;;;6.18;2.63;;;5.50;99.90;;;;;;5058975;28;20044;-74
2022/04/11 07:13:23;;;;;;;10.90;3.22;;;5.60;99.90;;;;;;5075305;28;20489;-74
2022/04/11 07:15:48;;;;;;;6.25;3.15;;;5.60;99.90;;;;;;5075419;28;20036;-74
2022/04/11 07:18:14;;;;;;;5.40;3.10;;;5.70;99.90;;;;;;5075241;28;20089;-74
2022/04/11 07:20:40;;;;;;;8.23;3.28;;;5.70;99.90;;;;;;5075550;28;20054;-74
2022/04/11 07:23:06;;;;;;;4.65;2.40;;;5.80;99.90;;;;;;5075512;28;20134;-74
2022/04/11 07:25:31;;;;;;;6.10;2.58;;;5.90;99.90;;;;;;5075474;28;20032;-74
2022/04/11 07:27:57;;;;;;;7.03;2.67;;;5.90;99.90;;;;;;5058671;28;20400;-74
2022/04/11 07:30:23;;;;;;;7.85;2.30;;;6.00;99.90;;;;;;5075214;28;20028;-74
2022/04/11 07:32:48;;;;;;;6.50;2.47;;;6.10;99.90;;;;;;5058429;28;20085;-74
2022/04/11 07:35:14;;;;;;;6.03;2.50;;;6.10;99.90;;;;;;5075385;28;20044;-74
2022/04/11 07:37:39;;;;;;;6.82;2.65;;;6.20;99.90;;;;;;5075126;28;20499;-74
2022/04/11 07:40:06;;;;;;;7.55;2.58;;;6.20;99.90;;;;;;5058201;28;20032;-74
2022/04/11 07:42:32;;;;;;;5.97;2.67;;;6.30;99.90;;;;;;5075295;28;20554;-74
2022/04/11 07:44:57;;;;;;;7.38;2.75;;;6.40;99.90;;;;;;5075041;28;20079;-74
2022/04/11 07:47:23;;;;;;;5.65;2.45;;;6.40;99.90;;;;;;5075178;28;20036;-74
2022/04/11 07:49:48;;;;;;;9.13;2.75;;;6.50;99.90;;;;;;5058295;28;20036;-74
2022/04/11 07:52:14;;;;;;;6.07;3.30;;;6.60;99.90;;;;;;5060749;28;20089;-74
2022/04/11 07:54:40;;;;;;;7.30;3.25;;;6.70;99.90;;;;;;5079040;28;20094;-74
2022/04/11 07:57:07;;;;;;;5.53;2.92;;;6.80;99.90;;;;;;5079305;28;20032;-74
2022/04/11 07:59:33;;;;;;;9.63;2.88;;;6.80;99.90;;;;;;5078829;28;20437;-74
2022/04/11 08:01:58;;;;;;;6.20;2.95;;;7.00;99.90;;;;;;5062786;28;20043;-73
2022/04/11 08:04:27;;;;;;;6.30;3.22;;;7.00;99.90;;;;;;5079127;28;20035;-73
2022/04/11 08:06:52;;;;;;;7.05;3.25;;;7.10;99.90;;;;;;5079157;28;20123;-73
2022/04/11 08:09:19;;;;;;;8.27;2.85;;;7.20;99.90;;;;;;5078682;28;20119;-72
2022/04/11 08:11:44;;;;;;;8.85;3.80;;;7.30;99.90;;;;;;5078936;28;20051;-72
2022/04/11 08:14:10;;;;;;;13.05;3.60;;;7.40;99.90;;;;;;5078667;28;20040;-72
2022/04/11 08:16:35;;;;;;;7.18;3.10;;;7.50;99.90;;;;;;5078638;28;20400;-72
2022/04/11 08:19:01;;;;;;;13.18;3.10;;;7.60;99.90;;;;;;5078774;28;20065;-72
2022/04/11 08:21:26;;;;;;;6.32;3.10;;;7.70;99.90;;;;;;5078603;28;20068;-73
2022/04/11 08:23:52;;;;;;;5.85;3.00;;;7.90;99.90;;;;;;5078546;28;20036;-72
2022/04/11 08:26:17;;;;;;;8.25;3.30;;;8.00;99.90;;;;;;5078604;28;20047;-72
2022/04/11 08:28:43;;;;;;;7.22;3.55;;;8.20;99.90;;;;;;5061925;28;20217;-72
2022/04/11 08:31:09;;;;;;;5.75;2.90;;;8.30;99.90;;;;;;5078377;28;20061;-73
2022/04/11 08:33:34;;;;;;;7.05;3.50;;;8.40;99.90;;;;;;5078213;28;20071;-72
2022/04/11 08:36:00;;;;;;;8.82;3.67;;;8.60;99.90;;;;;;5078313;28;20039;-72
2022/04/11 08:38:25;;;;;;;6.72;3.25;;;8.80;99.90;;;;;;5078053;28;20089;-72
2022/04/11 08:40:54;;;;;;;8.77;3.50;;;8.90;99.90;;;;;;5078198;28;20046;-72
2022/04/11 08:43:22;;;;;;;7.93;3.00;;;9.00;99.90;;;;;;5078409;28;20119;-72
2022/04/11 08:45:51;;;;;;;10.18;3.70;;;9.10;99.90;;;;;;5078042;28;20036;-72
2022/04/11 08:48:17;;;;;;;7.03;2.90;;;9.30;99.90;;;;;;5078047;28;20047;-72
2022/04/11 08:50:42;;;;;;;6.60;2.95;;;9.40;99.90;;;;;;5078284;28;20044;-72
2022/04/11 08:53:08;;;;;;;5.13;2.58;;;9.60;99.90;;;;;;5077917;28;20036;-72
2022/04/11 08:55:34;;;;;;;8.43;2.63;;;9.70;99.90;;;;;;5078379;28;20059;-72
2022/04/11 08:58:00;;;;;;;4.65;2.83;;;10.00;99.90;;;;;;5077785;28;20123;-72
2022/04/11 09:00:25;;;;;;;6.15;2.92;;;10.30;99.90;;;;;;5078130;28;20043;-72
2022/04/11 09:02:51;;;;;;;5.38;2.88;;;10.60;99.90;;;;;;5077430;28;20477;-72
2022/04/11 09:05:22;;;;;;;7.78;2.70;;;11.00;99.80;;;;;;5077825;28;20032;-75
2022/04/11 09:07:55;;;;;;;9.25;2.88;;;11.30;98.60;;;;;;5077692;28;20085;-72
2022/04/11 09:10:26;;;;;;;5.00;2.42;;;11.60;95.90;;;;;;5077961;28;20479;-71
2022/04/11 09:12:54;;;;;;;6.65;2.38;;;11.70;95.30;;;;;;5077728;28;20052;-71
2022/04/11 09:15:20;;;;;;;10.55;3.05;;;11.90;91.70;;;;;;5078138;28;20071;-71
2022/04/11 09:17:47;;;;;;;6.20;2.38;;;12.20;91.40;;;;;;5077431;28;20093;-71
2022/04/11 09:20:27;;;;;;;7.25;2.78;;;12.30;91.60;;;;;;5060711;28;20036;-71
2022/04/11 09:22:53;;;;;;;4.85;2.47;;;12.60;92.00;;;;;;5077746;28;20162;-71
2022/04/11 09:25:21;;;;;;;6.53;2.60;;;12.90;83.00;;;;;;5077395;28;20077;-71
2022/04/11 09:27:48;;;;;;;4.38;2.75;;;13.10;77.20;;;;;;5077180;28;20090;-71
2022/04/11 09:30:24;;;;;;;6.78;2.35;;;13.30;73.00;;;;;;5077313;28;20489;-71
2022/04/11 09:32:52;;;;;;;6.55;2.05;;;13.30;68.80;;;;;;5077433;28;20036;-71
2022/04/11 09:35:22;;;;;;;5.00;2.03;;;13.40;69.40;;;;;;5077066;28;20126;-72
2022/04/11 09:38:03;;;;;;;6.10;2.20;;;13.70;64.10;;;;;;5077394;28;20047;-71
2022/04/11 09:40:29;;;;;;;5.30;1.90;;;14.00;63.90;;;;;;5077085;28;20032;-71
2022/04/11 09:42:57;;;;;;;4.13;1.98;;;14.30;63.20;;;;;;5077033;28;20040;-71
2022/04/11 09:45:23;;;;;;;5.32;1.95;;;14.50;61.80;;;;;;5077032;28;20035;-71
2022/04/11 09:47:59;;;;;;;6.22;1.95;;;14.50;61.30;;;;;;5076886;28;20035;-71
2022/04/11 09:50:28;;;;;;;4.68;1.85;;;14.60;59.50;;;;;;5077057;28;20047;-71
2022/04/11 09:53:13;;;;;;;5.03;2.00;;;14.80;59.00;;;;;;5076750;28;20036;-71
2022/04/11 09:55:41;;;;;;;3.88;1.60;;;15.00;57.90;;;;;;5077115;28;20071;-71
2022/04/11 09:58:08;;;;;;;3.13;1.85;;;15.10;58.30;;;;;;5076567;28;20500;-72
2022/04/11 10:00:35;;;;;;;4.43;1.65;;;15.30;58.70;;;;;;5076665;28;20032;-71
2022/04/11 10:03:02;;;;;;;4.75;1.85;;;15.50;57.40;;;;;;5076679;28;20047;-72
2022/04/11 10:05:28;;;;;;;5.75;2.88;;;15.60;57.10;;;;;;5076533;28;20432;-72
2022/04/11 10:07:54;;;;;;;6.22;2.00;;;15.60;55.70;;;;;;5076746;28;20123;-71
2022/04/11 10:10:22;;;;;;;5.32;2.03;;;15.70;54.50;;;;;;5076755;28;20036;-71
2022/04/11 10:12:48;;;;;;;4.65;1.98;;;15.80;54.30;;;;;;5076418;28;20043;-71
2022/04/11 10:15:14;;;;;;;5.85;1.95;;;15.70;52.90;;;;;;5075515;28;20090;-71
2022/04/11 10:17:40;;;;;;;4.90;2.40;;;15.90;52.50;;;;;;5076297;28;20043;-72
2022/04/11 10:20:07;;;;;;;4.95;2.17;;;16.00;51.70;;;;;;5076246;28;20032;-72
2022/04/11 10:22:43;;;;;;;5.63;2.15;;;16.10;50.80;;;;;;5076438;28;20408;-72
2022/04/11 10:25:15;;;;;;;7.88;2.30;;;16.40;52.30;;;;;;5076460;28;20504;-72
2022/04/11 10:27:40;;;;;;;4.97;2.08;;;16.60;51.90;;;;;;5076133;28;20082;-72
2022/04/11 10:30:26;;;;;;;4.38;2.15;;;16.70;51.20;;;;;;5076128;28;20075;-72
2022/04/11 10:32:55;;;;;;;4.93;1.95;;;16.90;48.50;;;;;;5076377;28;20040;-72
2022/04/11 10:35:53;;;;;;;5.13;2.22;;;17.00;49.70;;;;;;5075992;28;20048;-72
2022/04/11 10:38:20;;;;;;;3.83;2.05;;;17.20;48.60;;;;;;4995578;28;20387;-72
2022/04/11 10:40:49;;;;;;;5.50;2.55;;;17.30;49.50;;;;;;4995757;28;20045;-72
2022/04/11 10:43:17;;;;;;;4.50;2.67;;;17.40;49.10;;;;;;4995902;28;20045;-72
2022/04/11 10:45:56;;;;;;;7.68;3.22;;;17.50;49.70;;;;;;5012272;28;20124;-72
2022/04/11 10:48:57;;;;;;;6.53;4.15;;;17.60;47.60;;;;;;4995605;28;20046;-72
2022/04/11 10:51:22;;;;;;;9.48;4.15;;;17.50;44.90;;;;;;4995536;28;20096;-72
2022/04/11 10:54:21;;;;;;;7.50;4.32;;;17.30;47.70;;;;;;4995546;28;20054;-72
2022/04/11 10:56:51;;;;;;;6.72;4.40;;;17.50;47.30;;;;;;4995689;28;20074;-72
2022/04/11 10:59:25;;;;;;;11.73;5.18;;;17.60;46.20;;;;;;5011705;28;20073;-72
2022/04/11 11:01:56;;;;;;;7.80;4.90;;;17.60;45.60;;;;;;4995701;28;20086;-73
2022/04/11 11:04:27;;;;;;;7.43;4.55;;;17.40;45.30;;;;;;5011603;28;20041;-73
2022/04/11 11:07:26;;;;;;;7.95;4.82;;;17.00;46.70;;;;;;5011609;28;20050;-73
2022/04/11 11:09:57;;;;;;;8.60;4.82;;;17.10;45.80;;;;;;4956551;28;20058;-73
2022/04/11 11:12:24;;;;;;;7.88;4.95;;;17.20;46.60;;;;;;4956467;28;20059;-73
2022/04/11 11:14:49;;;;;;;6.72;4.97;;;17.20;47.00;;;;;;5024650;28;20121;-73
2022/04/11 11:17:15;;;;;;;7.07;5.10;;;17.20;47.10;;;;;;5014758;28;20053;-73
2022/04/11 11:20:08;;;;;;;6.55;4.70;;;17.30;47.40;;;;;;5014780;28;20049;-73
2022/04/11 11:22:54;;;;;;;;;;;17.40;45.70;;;;;;5015049;28;20038;-73
2022/04/11 11:25:19;;;;;;;7.40;5.32;;;17.40;44.00;;;;;;5014341;28;19966;-73
2022/04/11 11:27:46;;;;;;;8.30;4.90;;;17.50;46.30;;;;;;5014898;28;20124;-73
2022/04/11 11:30:13;;;;;;;7.03;4.32;;;17.60;45.80;;;;;;5014874;28;20049;-73
2022/04/11 11:32:40;;;;;;;8.98;4.60;;;17.90;47.40;;;;;;5014618;28;20049;-72
2022/04/11 11:35:09;;;;;;;8.70;5.28;;;17.80;45.60;;;;;;5014498;28;20050;-72
2022/04/11 11:37:35;;;;;;;8.27;4.70;;;18.00;45.30;;;;;;4998157;28;20084;-72
2022/04/11 11:40:02;;;;;;;8.65;5.35;;;18.00;45.10;;;;;;5014651;28;20520;-73
2022/04/11 11:42:34;;;;;;;8.55;5.00;;;18.00;45.90;;;;;;5014524;28;20045;-73
2022/04/11 11:45:00;;;;;;;7.80;4.97;;;18.00;45.40;;;;;;5034707;28;20568;-73
2022/04/11 11:47:26;;;;;;;10.63;5.40;;;18.10;45.50;;;;;;5058282;28;20115;-73
2022/04/11 11:49:59;;;;;;;7.72;4.90;;;18.30;45.30;;;;;;5074976;28;20040;-73
2022/04/11 11:52:25;;;;;;;9.95;4.63;;;18.50;44.80;;;;;;5075028;28;20093;-73
2022/04/11 11:54:52;;;;;;;8.40;4.47;;;18.70;44.50;;;;;;5074921;28;20083;-72
2022/04/11 11:57:18;;;;;;;6.90;4.13;;;18.90;44.30;;;;;;5075239;28;20075;-73
2022/04/11 11:59:47;;;;;;;9.43;4.68;;;19.00;45.00;;;;;;5075096;28;20500;-73
2022/04/11 12:04:57;;;;;;;6.80;4.47;;;19.00;43.60;;;;;;5074815;28;20492;-73
2022/04/11 12:07:23;;;;;;;7.15;4.82;;;18.90;43.30;;;;;;5074840;28;20040;-73
2022/04/11 12:09:49;;;;;;;8.90;4.82;;;18.60;44.50;;;;;;5074754;28;20119;-73
2022/04/11 12:12:18;;;;;;;8.57;4.32;;;18.40;45.10;;;;;;5074846;28;20072;-73
2022/04/11 12:15:06;;;;;;;7.18;4.18;;;18.50;44.60;;;;;;5074630;28;20093;-73
2022/04/11 12:17:34;;;;;;;5.60;4.60;;;18.70;43.00;;;;;;5074690;28;20036;-73
2022/04/11 12:20:18;;;;;;;8.60;4.50;;;18.50;43.80;;;;;;5074705;28;20033;-73
2022/04/11 12:23:06;;;;;;;7.45;4.65;;;18.50;43.70;;;;;;5074635;28;20067;-73
2022/04/11 12:25:38;;;;;;;7.47;4.22;;;18.50;43.30;;;;;;5057999;28;20051;-73
2022/04/11 12:28:24;;;;;;;9.05;4.05;;;18.50;43.50;;;;;;5057845;28;20040;-73
2022/04/11 12:31:02;;;;;;;6.55;4.45;;;18.50;43.50;;;;;;5074679;28;20115;-73
2022/04/11 12:33:42;;;;;;;8.68;4.40;;;18.60;43.30;;;;;;5074689;28;20479;-73
2022/04/11 12:36:29;;;;;;;7.22;4.47;;;18.60;43.20;;;;;;5057932;28;20381;-73
2022/04/11 12:38:58;;;;;;;10.20;5.13;;;18.70;43.00;;;;;;5077699;28;20119;-73
2022/04/11 12:41:33;;;;;;;8.32;5.25;;;18.40;43.80;;;;;;5078175;28;20032;-73
2022/04/11 12:44:11;;;;;;;7.93;4.78;;;18.40;44.20;;;;;;5078228;28;20130;-73
2022/04/11 12:46:41;;;;;;;7.13;4.63;;;18.50;44.50;;;;;;5078116;28;20032;-73
2022/04/11 12:49:09;;;;;;;9.07;6.07;;;18.60;44.10;;;;;;5078061;28;20075;-73
2022/04/11 12:51:35;;;;;;;9.57;5.25;;;18.50;44.30;;;;;;5077946;28;20089;-73
2022/04/11 12:54:07;;;;;;;8.73;5.43;;;18.20;45.00;;;;;;5077882;28;20076;-73
2022/04/11 12:56:45;;;;;;;10.85;5.22;;;17.90;44.60;;;;;;5077918;28;20028;-73
2022/04/11 12:59:24;;;;;;;9.23;5.30;;;18.10;45.30;;;;;;5077789;28;20032;-73